Terminal Aerodrome Forecast
Issued by NWS

Home | Current Version | Previous Version | Text Only | Print | Product List | Glossary On
Versions: 1 2 3 4 5 6 7 8 9 10 11 12 13 14 15 16 17 18
000
FTUS42 TJSJ 300609 CCA
TAFJPS
TAF COR
TJPS 300609Z 3006/0106 08005KT P6SM -RA VCTS SCT020CB BKN050
      TEMPO 3006/3009 VRB12G20KT 5SM TSRA BKN020CB BKN040 OVC080
     FM301500 15010KT P6SM VCSH SCT025 BKN060
     FM302330 09006KT P6SM FEW030 SCT060=

USA.gov is the U.S. government's official web portal to all federal, state and local government web resources and services.